EGAE/LDY METAR and TAF weather

Enter ICAO airport designator
Station Type Date Time Source
EGAE METAR 2022/06/25 16:20 UTC NOAA

EGAE 251620Z 17016KT 9999 FEW028 SCT045 17/09 Q0994


Station Type Date Time Source
EGAE Decoded METAR 2022/06/25 16:20 UTC NOAA

Eglinton / Londonderr, United Kingdom (EGAE) 55-03N 007-09W
Jun 25, 2022 - 12:20 PM EDT / 2022.06.25 1620 UTC
Wind: from the S (170 degrees) at 18 MPH (16 KT):0
Visibility: greater than 7 mile(s):0
Sky conditions: partly cloudy
Temperature: 62 F (17 C)
Dew Point: 48 F (9 C)
Relative Humidity: 59%
Pressure (altimeter): 29.35 in. Hg (0994 hPa)
ob: EGAE 251620Z 17016KT 9999 FEW028 SCT045 17/09 Q0994
cycle: 16

Station Type Date Time Source
EGAE TAF UTC NOAA

Error!

Example: see airport list